sensor_id;sensor_type;location;lat;lon;timestamp;temperature;humidity
3300;DHT22;1662;49.310;8.134;2023-11-19T00:00:10;9.70;99.90
3300;DHT22;1662;49.310;8.134;2023-11-19T00:02:38;9.60;99.90
3300;DHT22;1662;49.310;8.134;2023-11-19T00:05:04;9.60;99.90
3300;DHT22;1662;49.310;8.134;2023-11-19T00:07:32;9.60;99.90
3300;DHT22;1662;49.310;8.134;2023-11-19T00:09:57;9.60;99.90
3300;DHT22;1662;49.310;8.134;2023-11-19T00:12:23;8.60;99.90
3300;DHT22;1662;49.310;8.134;2023-11-19T00:14:52;9.70;99.90
3300;DHT22;1662;49.310;8.134;2023-11-19T00:17:20;9.70;99.90
3300;DHT22;1662;49.310;8.134;2023-11-19T00:19:46;9.80;99.90
3300;DHT22;1662;49.310;8.134;2023-11-19T00:22:12;9.80;99.90
3300;DHT22;1662;49.310;8.134;2023-11-19T00:24:37;9.80;99.90
3300;DHT22;1662;49.310;8.134;2023-11-19T00:27:05;9.80;99.90
3300;DHT22;1662;49.310;8.134;2023-11-19T00:29:33;9.90;99.90
3300;DHT22;1662;49.310;8.134;2023-11-19T00:31:58;9.90;99.90
3300;DHT22;1662;49.310;8.134;2023-11-19T00:34:24;9.90;99.90
3300;DHT22;1662;49.310;8.134;2023-11-19T00:36:49;9.90;99.90
3300;DHT22;1662;49.310;8.134;2023-11-19T00:39:15;10.00;99.90
3300;DHT22;1662;49.310;8.134;2023-11-19T00:41:41;10.00;99.90
3300;DHT22;1662;49.310;8.134;2023-11-19T00:44:07;10.00;99.90
3300;DHT22;1662;49.310;8.134;2023-11-19T00:46:32;10.00;99.90
3300;DHT22;1662;49.310;8.134;2023-11-19T00:48:58;10.70;99.90
3300;DHT22;1662;49.310;8.134;2023-11-19T00:51:27;10.20;99.90
3300;DHT22;1662;49.310;8.134;2023-11-19T00:53:53;10.00;99.90
3300;DHT22;1662;49.310;8.134;2023-11-19T00:56:20;10.20;99.90
3300;DHT22;1662;49.310;8.134;2023-11-19T00:58:46;10.30;99.90
3300;DHT22;1662;49.310;8.134;2023-11-19T01:01:13;10.20;99.90
3300;DHT22;1662;49.310;8.134;2023-11-19T01:03:38;10.50;99.90
3300;DHT22;1662;49.310;8.134;2023-11-19T01:06:04;10.30;99.90
3300;DHT22;1662;49.310;8.134;2023-11-19T01:08:30;10.20;99.90
3300;DHT22;1662;49.310;8.134;2023-11-19T01:10:56;10.20;99.90
3300;DHT22;1662;49.310;8.134;2023-11-19T01:13:21;10.30;99.90
3300;DHT22;1662;49.310;8.134;2023-11-19T01:15:47;10.30;99.90
3300;DHT22;1662;49.310;8.134;2023-11-19T01:18:13;10.30;99.90
3300;DHT22;1662;49.310;8.134;2023-11-19T01:20:39;10.30;99.90
3300;DHT22;1662;49.310;8.134;2023-11-19T01:23:04;10.30;99.90
3300;DHT22;1662;49.310;8.134;2023-11-19T01:25:30;10.30;99.90
3300;DHT22;1662;49.310;8.134;2023-11-19T01:27:59;10.30;99.90
3300;DHT22;1662;49.310;8.134;2023-11-19T01:30:25;10.50;99.90
3300;DHT22;1662;49.310;8.134;2023-11-19T01:32:51;10.30;99.90
3300;DHT22;1662;49.310;8.134;2023-11-19T01:35:16;10.40;99.90
3300;DHT22;1662;49.310;8.134;2023-11-19T01:37:42;10.60;99.90
3300;DHT22;1662;49.310;8.134;2023-11-19T01:40:08;10.50;99.90
3300;DHT22;1662;49.310;8.134;2023-11-19T01:42:39;10.50;99.90
3300;DHT22;1662;49.310;8.134;2023-11-19T01:45:06;10.50;99.90
3300;DHT22;1662;49.310;8.134;2023-11-19T01:47:35;10.50;99.90
3300;DHT22;1662;49.310;8.134;2023-11-19T01:50:02;10.50;99.90
3300;DHT22;1662;49.310;8.134;2023-11-19T01:52:33;10.50;99.90
3300;DHT22;1662;49.310;8.134;2023-11-19T01:55:00;10.70;99.90
3300;DHT22;1662;49.310;8.134;2023-11-19T01:57:26;10.60;99.90
3300;DHT22;1662;49.310;8.134;2023-11-19T01:59:52;10.60;99.90
3300;DHT22;1662;49.310;8.134;2023-11-19T02:02:20;10.80;99.90
3300;DHT22;1662;49.310;8.134;2023-11-19T02:04:49;10.90;99.90
3300;DHT22;1662;49.310;8.134;2023-11-19T02:07:16;10.60;99.90
3300;DHT22;1662;49.310;8.134;2023-11-19T02:09:45;10.60;99.90
3300;DHT22;1662;49.310;8.134;2023-11-19T02:12:11;10.60;99.90
3300;DHT22;1662;49.310;8.134;2023-11-19T02:14:40;11.70;99.90
3300;DHT22;1662;49.310;8.134;2023-11-19T02:17:06;10.80;99.90
3300;DHT22;1662;49.310;8.134;2023-11-19T02:19:34;11.00;99.90
3300;DHT22;1662;49.310;8.134;2023-11-19T02:21:59;10.90;99.90
3300;DHT22;1662;49.310;8.134;2023-11-19T02:24:26;10.90;99.90
3300;DHT22;1662;49.310;8.134;2023-11-19T02:27:05;10.90;99.90
3300;DHT22;1662;49.310;8.134;2023-11-19T02:29:33;10.90;99.90
3300;DHT22;1662;49.310;8.134;2023-11-19T02:32:00;10.90;99.90
3300;DHT22;1662;49.310;8.134;2023-11-19T02:34:28;10.80;99.90
3300;DHT22;1662;49.310;8.134;2023-11-19T02:36:54;10.80;99.90
3300;DHT22;1662;49.310;8.134;2023-11-19T02:39:22;10.80;99.90
3300;DHT22;1662;49.310;8.134;2023-11-19T02:41:48;10.80;99.90
3300;DHT22;1662;49.310;8.134;2023-11-19T02:44:18;10.80;99.90
3300;DHT22;1662;49.310;8.134;2023-11-19T02:46:43;10.80;99.90
3300;DHT22;1662;49.310;8.134;2023-11-19T02:49:09;10.80;99.90
3300;DHT22;1662;49.310;8.134;2023-11-19T02:51:34;10.80;99.90
3300;DHT22;1662;49.310;8.134;2023-11-19T02:54:01;10.80;99.90
3300;DHT22;1662;49.310;8.134;2023-11-19T02:56:29;10.80;99.90
3300;DHT22;1662;49.310;8.134;2023-11-19T02:58:59;10.90;99.90
3300;DHT22;1662;49.310;8.134;2023-11-19T03:01:28;10.90;99.90
3300;DHT22;1662;49.310;8.134;2023-11-19T03:03:59;11.00;99.90
3300;DHT22;1662;49.310;8.134;2023-11-19T03:06:26;11.00;99.90
3300;DHT22;1662;49.310;8.134;2023-11-19T03:08:55;11.00;99.90
3300;DHT22;1662;49.310;8.134;2023-11-19T03:11:21;11.10;99.90
3300;DHT22;1662;49.310;8.134;2023-11-19T03:13:46;11.10;99.90
3300;DHT22;1662;49.310;8.134;2023-11-19T03:16:12;11.00;99.90
3300;DHT22;1662;49.310;8.134;2023-11-19T03:18:38;11.00;99.90
3300;DHT22;1662;49.310;8.134;2023-11-19T03:21:06;10.90;99.90
3300;DHT22;1662;49.310;8.134;2023-11-19T03:23:33;10.90;99.90
3300;DHT22;1662;49.310;8.134;2023-11-19T03:25:58;10.90;99.90
3300;DHT22;1662;49.310;8.134;2023-11-19T03:28:24;10.90;99.90
3300;DHT22;1662;49.310;8.134;2023-11-19T03:30:50;10.90;99.90
3300;DHT22;1662;49.310;8.134;2023-11-19T03:33:15;11.00;99.90
3300;DHT22;1662;49.310;8.134;2023-11-19T03:35:41;10.80;99.90
3300;DHT22;1662;49.310;8.134;2023-11-19T03:38:07;10.90;99.90
3300;DHT22;1662;49.310;8.134;2023-11-19T03:40:32;10.90;99.90
3300;DHT22;1662;49.310;8.134;2023-11-19T03:42:58;10.90;99.90
3300;DHT22;1662;49.310;8.134;2023-11-19T03:45:24;11.00;99.90
3300;DHT22;1662;49.310;8.134;2023-11-19T03:47:50;10.90;99.90
3300;DHT22;1662;49.310;8.134;2023-11-19T03:50:18;10.90;99.90
3300;DHT22;1662;49.310;8.134;2023-11-19T03:52:49;11.00;99.90
3300;DHT22;1662;49.310;8.134;2023-11-19T03:55:15;11.00;99.90
3300;DHT22;1662;49.310;8.134;2023-11-19T03:57:43;11.00;99.90
3300;DHT22;1662;49.310;8.134;2023-11-19T04:00:09;11.10;99.90
3300;DHT22;1662;49.310;8.134;2023-11-19T04:02:36;11.10;99.90
3300;DHT22;1662;49.310;8.134;2023-11-19T04:05:02;11.20;99.90
3300;DHT22;1662;49.310;8.134;2023-11-19T04:07:28;11.10;99.90
3300;DHT22;1662;49.310;8.134;2023-11-19T04:09:54;11.30;99.90
3300;DHT22;1662;49.310;8.134;2023-11-19T04:12:20;11.30;99.90
3300;DHT22;1662;49.310;8.134;2023-11-19T04:14:45;11.30;99.90
3300;DHT22;1662;49.310;8.134;2023-11-19T04:17:11;11.30;99.90
3300;DHT22;1662;49.310;8.134;2023-11-19T04:19:36;11.40;99.90
3300;DHT22;1662;49.310;8.134;2023-11-19T04:22:02;11.20;99.90
3300;DHT22;1662;49.310;8.134;2023-11-19T04:24:30;11.30;99.90
3300;DHT22;1662;49.310;8.134;2023-11-19T04:26:55;11.40;99.90
3300;DHT22;1662;49.310;8.134;2023-11-19T04:29:21;11.30;99.90
3300;DHT22;1662;49.310;8.134;2023-11-19T04:31:46;11.40;99.90
3300;DHT22;1662;49.310;8.134;2023-11-19T04:34:14;11.30;99.90
3300;DHT22;1662;49.310;8.134;2023-11-19T04:36:40;11.30;99.90
3300;DHT22;1662;49.310;8.134;2023-11-19T04:39:06;11.30;99.90
3300;DHT22;1662;49.310;8.134;2023-11-19T04:41:46;11.30;99.90
3300;DHT22;1662;49.310;8.134;2023-11-19T04:44:13;11.40;99.90
3300;DHT22;1662;49.310;8.134;2023-11-19T04:46:39;11.40;99.90
3300;DHT22;1662;49.310;8.134;2023-11-19T04:49:04;11.40;99.90
3300;DHT22;1662;49.310;8.134;2023-11-19T04:51:30;11.40;99.90
3300;DHT22;1662;49.310;8.134;2023-11-19T04:53:58;11.40;99.90
3300;DHT22;1662;49.310;8.134;2023-11-19T04:56:23;11.40;99.90
3300;DHT22;1662;49.310;8.134;2023-11-19T04:58:49;11.50;99.90
3300;DHT22;1662;49.310;8.134;2023-11-19T05:01:17;11.50;99.90
3300;DHT22;1662;49.310;8.134;2023-11-19T05:03:43;11.50;99.90
3300;DHT22;1662;49.310;8.134;2023-11-19T05:06:09;11.50;99.90
3300;DHT22;1662;49.310;8.134;2023-11-19T05:08:35;11.50;99.90
3300;DHT22;1662;49.310;8.134;2023-11-19T05:11:01;11.60;99.90
3300;DHT22;1662;49.310;8.134;2023-11-19T05:13:26;11.60;99.90
3300;DHT22;1662;49.310;8.134;2023-11-19T05:15:52;11.70;99.90
3300;DHT22;1662;49.310;8.134;2023-11-19T05:18:20;11.80;99.90
3300;DHT22;1662;49.310;8.134;2023-11-19T05:20:46;11.70;99.90
3300;DHT22;1662;49.310;8.134;2023-11-19T05:23:13;11.80;99.90
3300;DHT22;1662;49.310;8.134;2023-11-19T05:25:39;11.70;99.90
3300;DHT22;1662;49.310;8.134;2023-11-19T05:28:05;11.70;99.90
3300;DHT22;1662;49.310;8.134;2023-11-19T05:30:30;11.80;99.90
3300;DHT22;1662;49.310;8.134;2023-11-19T05:32:56;11.80;99.90
3300;DHT22;1662;49.310;8.134;2023-11-19T05:35:21;11.80;99.90
3300;DHT22;1662;49.310;8.134;2023-11-19T05:37:47;11.80;99.90
3300;DHT22;1662;49.310;8.134;2023-11-19T05:40:13;11.80;99.90
3300;DHT22;1662;49.310;8.134;2023-11-19T05:42:44;11.90;99.90
3300;DHT22;1662;49.310;8.134;2023-11-19T05:45:12;11.90;99.90
3300;DHT22;1662;49.310;8.134;2023-11-19T05:47:38;12.00;99.90
3300;DHT22;1662;49.310;8.134;2023-11-19T05:50:04;12.10;99.90
3300;DHT22;1662;49.310;8.134;2023-11-19T05:52:31;12.00;99.90
3300;DHT22;1662;49.310;8.134;2023-11-19T05:55:00;12.10;99.90
3300;DHT22;1662;49.310;8.134;2023-11-19T05:57:29;12.20;99.90
3300;DHT22;1662;49.310;8.134;2023-11-19T05:59:55;12.10;99.90
3300;DHT22;1662;49.310;8.134;2023-11-19T06:02:20;12.20;99.90
3300;DHT22;1662;49.310;8.134;2023-11-19T06:04:49;12.20;99.90
3300;DHT22;1662;49.310;8.134;2023-11-19T06:07:15;12.20;99.90
3300;DHT22;1662;49.310;8.134;2023-11-19T06:09:40;12.20;99.90
3300;DHT22;1662;49.310;8.134;2023-11-19T06:12:07;12.20;99.90
3300;DHT22;1662;49.310;8.134;2023-11-19T06:14:33;12.20;99.90
3300;DHT22;1662;49.310;8.134;2023-11-19T06:17:01;12.30;99.90
3300;DHT22;1662;49.310;8.134;2023-11-19T06:19:26;12.30;99.90
3300;DHT22;1662;49.310;8.134;2023-11-19T06:21:52;12.30;99.90
3300;DHT22;1662;49.310;8.134;2023-11-19T06:24:18;12.30;99.90
3300;DHT22;1662;49.310;8.134;2023-11-19T06:26:43;12.40;99.90
3300;DHT22;1662;49.310;8.134;2023-11-19T06:29:09;12.40;99.90
3300;DHT22;1662;49.310;8.134;2023-11-19T06:31:35;12.60;99.90
3300;DHT22;1662;49.310;8.134;2023-11-19T06:34:00;12.70;99.90
3300;DHT22;1662;49.310;8.134;2023-11-19T06:41:18;12.70;99.90
3300;DHT22;1662;49.310;8.134;2023-11-19T06:43:46;12.80;99.90
3300;DHT22;1662;49.310;8.134;2023-11-19T06:46:16;12.70;99.90
3300;DHT22;1662;49.310;8.134;2023-11-19T06:48:42;12.80;99.90
3300;DHT22;1662;49.310;8.134;2023-11-19T06:51:10;12.80;99.90
3300;DHT22;1662;49.310;8.134;2023-11-19T06:53:35;12.80;99.90
3300;DHT22;1662;49.310;8.134;2023-11-19T06:56:05;12.80;99.90
3300;DHT22;1662;49.310;8.134;2023-11-19T06:58:40;12.80;99.90
3300;DHT22;1662;49.310;8.134;2023-11-19T07:01:07;12.90;99.90
3300;DHT22;1662;49.310;8.134;2023-11-19T07:03:35;13.30;99.90
3300;DHT22;1662;49.310;8.134;2023-11-19T07:06:00;12.90;99.90
3300;DHT22;1662;49.310;8.134;2023-11-19T07:08:26;13.00;99.90
3300;DHT22;1662;49.310;8.134;2023-11-19T07:10:52;13.00;99.90
3300;DHT22;1662;49.310;8.134;2023-11-19T07:13:18;12.90;99.90
3300;DHT22;1662;49.310;8.134;2023-11-19T07:15:47;12.80;99.90
3300;DHT22;1662;49.310;8.134;2023-11-19T07:18:12;12.80;99.90
3300;DHT22;1662;49.310;8.134;2023-11-19T07:20:39;12.70;99.90
3300;DHT22;1662;49.310;8.134;2023-11-19T07:23:07;12.70;99.90
3300;DHT22;1662;49.310;8.134;2023-11-19T07:25:34;12.70;99.90
3300;DHT22;1662;49.310;8.134;2023-11-19T07:28:02;12.60;99.90
3300;DHT22;1662;49.310;8.134;2023-11-19T07:30:30;12.60;99.90
3300;DHT22;1662;49.310;8.134;2023-11-19T07:32:55;12.60;99.90
3300;DHT22;1662;49.310;8.134;2023-11-19T07:35:21;12.60;99.90
3300;DHT22;1662;49.310;8.134;2023-11-19T07:37:46;12.50;99.90
3300;DHT22;1662;49.310;8.134;2023-11-19T07:40:13;12.80;99.90
3300;DHT22;1662;49.310;8.134;2023-11-19T07:42:39;12.80;99.90
3300;DHT22;1662;49.310;8.134;2023-11-19T07:45:05;12.90;99.90
3300;DHT22;1662;49.310;8.134;2023-11-19T07:47:32;13.00;99.90
3300;DHT22;1662;49.310;8.134;2023-11-19T07:49:58;13.10;99.90
3300;DHT22;1662;49.310;8.134;2023-11-19T07:52:23;13.20;99.90
3300;DHT22;1662;49.310;8.134;2023-11-19T07:54:49;13.30;99.90
3300;DHT22;1662;49.310;8.134;2023-11-19T07:57:14;13.30;99.90
3300;DHT22;1662;49.310;8.134;2023-11-19T07:59:40;13.20;99.90
3300;DHT22;1662;49.310;8.134;2023-11-19T08:02:05;13.20;99.90
3300;DHT22;1662;49.310;8.134;2023-11-19T08:04:31;13.30;99.90
3300;DHT22;1662;49.310;8.134;2023-11-19T08:06:57;13.30;99.90
3300;DHT22;1662;49.310;8.134;2023-11-19T08:09:22;13.30;99.90
3300;DHT22;1662;49.310;8.134;2023-11-19T08:11:48;13.40;99.90
3300;DHT22;1662;49.310;8.134;2023-11-19T08:14:15;13.40;99.90
3300;DHT22;1662;49.310;8.134;2023-11-19T08:16:40;13.40;99.90
3300;DHT22;1662;49.310;8.134;2023-11-19T08:19:10;13.30;99.90
3300;DHT22;1662;49.310;8.134;2023-11-19T08:21:36;13.30;99.90
3300;DHT22;1662;49.310;8.134;2023-11-19T08:24:02;13.40;99.90
3300;DHT22;1662;49.310;8.134;2023-11-19T08:26:27;13.50;99.90
3300;DHT22;1662;49.310;8.134;2023-11-19T08:28:53;13.60;99.90
3300;DHT22;1662;49.310;8.134;2023-11-19T08:31:18;13.60;99.90
3300;DHT22;1662;49.310;8.134;2023-11-19T08:33:44;13.70;99.90
3300;DHT22;1662;49.310;8.134;2023-11-19T08:36:15;14.00;99.90
3300;DHT22;1662;49.310;8.134;2023-11-19T08:38:44;13.80;99.90
3300;DHT22;1662;49.310;8.134;2023-11-19T08:41:10;13.80;99.90
3300;DHT22;1662;49.310;8.134;2023-11-19T08:43:35;13.90;99.90
3300;DHT22;1662;49.310;8.134;2023-11-19T08:46:01;13.80;99.90
3300;DHT22;1662;49.310;8.134;2023-11-19T08:48:27;13.80;99.90
3300;DHT22;1662;49.310;8.134;2023-11-19T08:50:52;13.90;99.90
3300;DHT22;1662;49.310;8.134;2023-11-19T08:53:18;14.10;99.90
3300;DHT22;1662;49.310;8.134;2023-11-19T08:55:43;14.10;99.90
3300;DHT22;1662;49.310;8.134;2023-11-19T08:58:09;14.10;99.90
3300;DHT22;1662;49.310;8.134;2023-11-19T09:00:34;14.20;99.90
3300;DHT22;1662;49.310;8.134;2023-11-19T09:03:00;14.10;99.90
3300;DHT22;1662;49.310;8.134;2023-11-19T09:05:26;14.20;99.90
3300;DHT22;1662;49.310;8.134;2023-11-19T09:07:51;14.20;99.90
3300;DHT22;1662;49.310;8.134;2023-11-19T09:10:18;14.30;99.90
3300;DHT22;1662;49.310;8.134;2023-11-19T09:12:43;14.30;99.90
3300;DHT22;1662;49.310;8.134;2023-11-19T09:15:09;14.40;99.90
3300;DHT22;1662;49.310;8.134;2023-11-19T09:17:36;14.30;99.90
3300;DHT22;1662;49.310;8.134;2023-11-19T09:20:01;14.40;99.90
3300;DHT22;1662;49.310;8.134;2023-11-19T09:22:29;14.30;99.90
3300;DHT22;1662;49.310;8.134;2023-11-19T09:24:55;14.30;99.90
3300;DHT22;1662;49.310;8.134;2023-11-19T09:27:20;14.40;99.90
3300;DHT22;1662;49.310;8.134;2023-11-19T09:29:46;14.50;99.90
3300;DHT22;1662;49.310;8.134;2023-11-19T09:32:14;14.40;99.90
3300;DHT22;1662;49.310;8.134;2023-11-19T09:34:39;14.50;99.90
3300;DHT22;1662;49.310;8.134;2023-11-19T09:37:05;14.60;99.90
3300;DHT22;1662;49.310;8.134;2023-11-19T09:39:33;14.60;99.90
3300;DHT22;1662;49.310;8.134;2023-11-19T09:41:58;14.60;99.90
3300;DHT22;1662;49.310;8.134;2023-11-19T09:44:26;14.60;99.90
3300;DHT22;1662;49.310;8.134;2023-11-19T09:46:56;14.70;99.90
3300;DHT22;1662;49.310;8.134;2023-11-19T09:49:26;14.70;99.90
3300;DHT22;1662;49.310;8.134;2023-11-19T09:51:52;14.80;99.90
3300;DHT22;1662;49.310;8.134;2023-11-19T09:54:18;14.80;99.90
3300;DHT22;1662;49.310;8.134;2023-11-19T09:56:43;14.80;99.90
3300;DHT22;1662;49.310;8.134;2023-11-19T09:59:09;14.80;99.90
3300;DHT22;1662;49.310;8.134;2023-11-19T10:01:37;14.90;99.90
3300;DHT22;1662;49.310;8.134;2023-11-19T10:04:06;14.90;99.90
3300;DHT22;1662;49.310;8.134;2023-11-19T10:06:32;14.90;99.90
3300;DHT22;1662;49.310;8.134;2023-11-19T10:09:00;14.90;99.90
3300;DHT22;1662;49.310;8.134;2023-11-19T10:11:28;15.00;99.90
3300;DHT22;1662;49.310;8.134;2023-11-19T10:13:56;14.90;99.90
3300;DHT22;1662;49.310;8.134;2023-11-19T10:16:28;15.10;99.90
3300;DHT22;1662;49.310;8.134;2023-11-19T10:18:55;15.10;99.90
3300;DHT22;1662;49.310;8.134;2023-11-19T10:21:21;15.00;99.90
3300;DHT22;1662;49.310;8.134;2023-11-19T10:26:14;15.20;99.90
3300;DHT22;1662;49.310;8.134;2023-11-19T10:28:40;15.30;99.90
3300;DHT22;1662;49.310;8.134;2023-11-19T10:31:17;15.40;99.90
3300;DHT22;1662;49.310;8.134;2023-11-19T10:33:44;15.40;99.90
3300;DHT22;1662;49.310;8.134;2023-11-19T10:36:11;15.40;99.90
3300;DHT22;1662;49.310;8.134;2023-11-19T10:38:38;15.30;99.90
3300;DHT22;1662;49.310;8.134;2023-11-19T10:41:04;15.40;99.90
3300;DHT22;1662;49.310;8.134;2023-11-19T10:43:31;15.40;99.90
3300;DHT22;1662;49.310;8.134;2023-11-19T10:46:10;15.30;99.90
3300;DHT22;1662;49.310;8.134;2023-11-19T10:48:39;15.30;99.90
3300;DHT22;1662;49.310;8.134;2023-11-19T10:51:07;15.30;99.90
3300;DHT22;1662;49.310;8.134;2023-11-19T10:53:37;15.40;99.90
3300;DHT22;1662;49.310;8.134;2023-11-19T10:56:10;15.40;99.90
3300;DHT22;1662;49.310;8.134;2023-11-19T10:58:36;15.50;99.90
3300;DHT22;1662;49.310;8.134;2023-11-19T11:01:11;15.60;99.90
3300;DHT22;1662;49.310;8.134;2023-11-19T11:03:43;15.60;99.90
3300;DHT22;1662;49.310;8.134;2023-11-19T11:06:11;15.60;99.90
3300;DHT22;1662;49.310;8.134;2023-11-19T11:08:39;15.60;99.90
3300;DHT22;1662;49.310;8.134;2023-11-19T11:13:37;15.80;99.90
3300;DHT22;1662;49.310;8.134;2023-11-19T11:16:05;16.20;99.90
3300;DHT22;1662;49.310;8.134;2023-11-19T11:18:33;16.00;99.90
3300;DHT22;1662;49.310;8.134;2023-11-19T11:21:02;16.10;99.90
3300;DHT22;1662;49.310;8.134;2023-11-19T11:27:01;16.10;99.90
3300;DHT22;1662;49.310;8.134;2023-11-19T11:29:52;16.10;99.90
3300;DHT22;1662;49.310;8.134;2023-11-19T11:32:47;16.10;99.90
3300;DHT22;1662;49.310;8.134;2023-11-19T11:35:46;16.20;99.90
3300;DHT22;1662;49.310;8.134;2023-11-19T11:38:16;16.30;99.90
3300;DHT22;1662;49.310;8.134;2023-11-19T11:41:16;16.40;99.90
3300;DHT22;1662;49.310;8.134;2023-11-19T11:43:52;16.50;99.90
3300;DHT22;1662;49.310;8.134;2023-11-19T11:49:08;16.70;99.90
3300;DHT22;1662;49.310;8.134;2023-11-19T11:57:10;16.60;99.90
3300;DHT22;1662;49.310;8.134;2023-11-19T11:59:49;16.60;99.90
3300;DHT22;1662;49.310;8.134;2023-11-19T12:02:17;16.70;99.90
3300;DHT22;1662;49.310;8.134;2023-11-19T12:04:47;16.80;99.90
3300;DHT22;1662;49.310;8.134;2023-11-19T12:07:21;17.00;99.90
3300;DHT22;1662;49.310;8.134;2023-11-19T12:09:48;17.20;99.90
3300;DHT22;1662;49.310;8.134;2023-11-19T12:12:25;17.10;99.90
3300;DHT22;1662;49.310;8.134;2023-11-19T12:15:02;16.90;99.90
3300;DHT22;1662;49.310;8.134;2023-11-19T12:20:04;16.50;99.90
3300;DHT22;1662;49.310;8.134;2023-11-19T12:22:31;16.30;99.90
3300;DHT22;1662;49.310;8.134;2023-11-19T12:24:57;16.80;99.90
3300;DHT22;1662;49.310;8.134;2023-11-19T12:27:23;16.10;99.90
3300;DHT22;1662;49.310;8.134;2023-11-19T12:29:49;16.00;99.90
3300;DHT22;1662;49.310;8.134;2023-11-19T12:32:14;15.80;99.90
3300;DHT22;1662;49.310;8.134;2023-11-19T12:34:40;15.80;99.90
3300;DHT22;1662;49.310;8.134;2023-11-19T12:37:06;16.00;99.90
3300;DHT22;1662;49.310;8.134;2023-11-19T12:39:32;15.90;99.90
3300;DHT22;1662;49.310;8.134;2023-11-19T12:41:58;15.90;99.90
3300;DHT22;1662;49.310;8.134;2023-11-19T12:44:26;15.80;99.90
3300;DHT22;1662;49.310;8.134;2023-11-19T12:47:10;15.90;99.90
3300;DHT22;1662;49.310;8.134;2023-11-19T12:49:36;16.20;99.90
3300;DHT22;1662;49.310;8.134;2023-11-19T12:52:11;16.10;99.90
3300;DHT22;1662;49.310;8.134;2023-11-19T12:54:40;16.30;99.90
3300;DHT22;1662;49.310;8.134;2023-11-19T12:57:05;16.40;99.90
3300;DHT22;1662;49.310;8.134;2023-11-19T12:59:31;16.60;99.90
3300;DHT22;1662;49.310;8.134;2023-11-19T13:01:57;16.80;99.90
3300;DHT22;1662;49.310;8.134;2023-11-19T13:04:31;16.90;99.90
3300;DHT22;1662;49.310;8.134;2023-11-19T13:07:01;17.00;99.90
3300;DHT22;1662;49.310;8.134;2023-11-19T13:09:29;17.10;99.90
3300;DHT22;1662;49.310;8.134;2023-11-19T13:11:56;17.30;99.90
3300;DHT22;1662;49.310;8.134;2023-11-19T13:14:22;17.40;99.90
3300;DHT22;1662;49.310;8.134;2023-11-19T13:16:48;17.20;99.90
3300;DHT22;1662;49.310;8.134;2023-11-19T13:19:15;17.20;99.90
3300;DHT22;1662;49.310;8.134;2023-11-19T13:21:47;17.30;99.90
3300;DHT22;1662;49.310;8.134;2023-11-19T13:24:13;17.30;99.90
3300;DHT22;1662;49.310;8.134;2023-11-19T13:26:39;17.00;99.90
3300;DHT22;1662;49.310;8.134;2023-11-19T13:29:05;16.70;99.90
3300;DHT22;1662;49.310;8.134;2023-11-19T13:31:30;16.50;99.90
3300;DHT22;1662;49.310;8.134;2023-11-19T13:33:56;16.40;99.90
3300;DHT22;1662;49.310;8.134;2023-11-19T13:36:23;16.10;99.90
3300;DHT22;1662;49.310;8.134;2023-11-19T13:38:49;15.90;99.90
3300;DHT22;1662;49.310;8.134;2023-11-19T13:41:15;15.80;99.90
3300;DHT22;1662;49.310;8.134;2023-11-19T13:43:41;15.80;99.90
3300;DHT22;1662;49.310;8.134;2023-11-19T13:46:06;15.80;99.90
3300;DHT22;1662;49.310;8.134;2023-11-19T13:48:37;15.60;99.90
3300;DHT22;1662;49.310;8.134;2023-11-19T13:51:02;15.50;99.90
3300;DHT22;1662;49.310;8.134;2023-11-19T13:53:28;15.50;99.90
3300;DHT22;1662;49.310;8.134;2023-11-19T13:55:54;15.40;99.90
3300;DHT22;1662;49.310;8.134;2023-11-19T13:58:19;15.50;99.90
3300;DHT22;1662;49.310;8.134;2023-11-19T14:00:45;15.40;99.90
3300;DHT22;1662;49.310;8.134;2023-11-19T14:03:10;15.30;99.90
3300;DHT22;1662;49.310;8.134;2023-11-19T14:05:37;15.30;99.90
3300;DHT22;1662;49.310;8.134;2023-11-19T14:08:03;15.30;99.90
3300;DHT22;1662;49.310;8.134;2023-11-19T14:10:37;15.30;99.90
3300;DHT22;1662;49.310;8.134;2023-11-19T14:13:04;15.40;99.90
3300;DHT22;1662;49.310;8.134;2023-11-19T14:15:30;15.40;99.90
3300;DHT22;1662;49.310;8.134;2023-11-19T14:17:55;15.50;99.90
3300;DHT22;1662;49.310;8.134;2023-11-19T14:20:21;15.50;99.90
3300;DHT22;1662;49.310;8.134;2023-11-19T14:22:46;15.40;99.90
3300;DHT22;1662;49.310;8.134;2023-11-19T14:25:15;15.40;99.90
3300;DHT22;1662;49.310;8.134;2023-11-19T14:27:44;15.40;99.90
3300;DHT22;1662;49.310;8.134;2023-11-19T14:30:12;15.40;99.90
3300;DHT22;1662;49.310;8.134;2023-11-19T14:32:40;15.40;99.90
3300;DHT22;1662;49.310;8.134;2023-11-19T14:35:06;15.30;99.90
3300;DHT22;1662;49.310;8.134;2023-11-19T14:37:32;15.20;99.90
3300;DHT22;1662;49.310;8.134;2023-11-19T14:39:58;15.20;99.90
3300;DHT22;1662;49.310;8.134;2023-11-19T14:42:24;15.10;99.90
3300;DHT22;1662;49.310;8.134;2023-11-19T14:44:53;15.10;99.90
3300;DHT22;1662;49.310;8.134;2023-11-19T14:47:20;15.00;99.90
3300;DHT22;1662;49.310;8.134;2023-11-19T14:49:48;15.00;99.90
3300;DHT22;1662;49.310;8.134;2023-11-19T14:52:14;15.10;99.90
3300;DHT22;1662;49.310;8.134;2023-11-19T14:54:40;15.00;99.90
3300;DHT22;1662;49.310;8.134;2023-11-19T14:57:06;15.00;99.90
3300;DHT22;1662;49.310;8.134;2023-11-19T14:59:33;14.90;99.90
3300;DHT22;1662;49.310;8.134;2023-11-19T15:01:59;14.90;99.90
3300;DHT22;1662;49.310;8.134;2023-11-19T15:04:26;14.90;99.90
3300;DHT22;1662;49.310;8.134;2023-11-19T15:06:56;14.90;99.90
3300;DHT22;1662;49.310;8.134;2023-11-19T15:09:21;14.80;99.90
3300;DHT22;1662;49.310;8.134;2023-11-19T15:11:50;14.80;99.90
3300;DHT22;1662;49.310;8.134;2023-11-19T15:14:15;14.70;99.90
3300;DHT22;1662;49.310;8.134;2023-11-19T15:16:44;14.70;99.90
3300;DHT22;1662;49.310;8.134;2023-11-19T15:19:10;14.60;99.90
3300;DHT22;1662;49.310;8.134;2023-11-19T15:21:37;14.60;99.90
3300;DHT22;1662;49.310;8.134;2023-11-19T15:24:03;14.60;99.90
3300;DHT22;1662;49.310;8.134;2023-11-19T15:26:33;14.60;99.90
3300;DHT22;1662;49.310;8.134;2023-11-19T15:28:59;14.50;99.90
3300;DHT22;1662;49.310;8.134;2023-11-19T15:31:24;14.50;99.90
3300;DHT22;1662;49.310;8.134;2023-11-19T15:33:52;14.50;99.90
3300;DHT22;1662;49.310;8.134;2023-11-19T15:36:18;14.40;99.90
3300;DHT22;1662;49.310;8.134;2023-11-19T15:38:44;14.50;99.90
3300;DHT22;1662;49.310;8.134;2023-11-19T15:41:10;14.40;99.90
3300;DHT22;1662;49.310;8.134;2023-11-19T15:43:35;14.40;99.90
3300;DHT22;1662;49.310;8.134;2023-11-19T15:46:05;14.30;99.90
3300;DHT22;1662;49.310;8.134;2023-11-19T15:48:33;14.30;99.90
3300;DHT22;1662;49.310;8.134;2023-11-19T15:51:01;14.20;99.90
3300;DHT22;1662;49.310;8.134;2023-11-19T15:53:28;14.20;99.90
3300;DHT22;1662;49.310;8.134;2023-11-19T15:55:53;14.20;99.90
3300;DHT22;1662;49.310;8.134;2023-11-19T15:58:19;14.20;99.90
3300;DHT22;1662;49.310;8.134;2023-11-19T16:00:46;14.20;99.90
3300;DHT22;1662;49.310;8.134;2023-11-19T16:03:13;14.10;99.90
3300;DHT22;1662;49.310;8.134;2023-11-19T16:05:38;14.10;99.90
3300;DHT22;1662;49.310;8.134;2023-11-19T16:08:04;14.10;99.90
3300;DHT22;1662;49.310;8.134;2023-11-19T16:10:31;14.10;99.90
3300;DHT22;1662;49.310;8.134;2023-11-19T16:12:56;14.20;99.90
3300;DHT22;1662;49.310;8.134;2023-11-19T16:15:22;14.00;99.90
3300;DHT22;1662;49.310;8.134;2023-11-19T16:17:48;13.90;99.90
3300;DHT22;1662;49.310;8.134;2023-11-19T16:20:13;14.10;99.90
3300;DHT22;1662;49.310;8.134;2023-11-19T16:22:40;14.00;99.90
3300;DHT22;1662;49.310;8.134;2023-11-19T16:25:08;13.90;99.90